Time;durP1;ratioP1;P1;durP2;ratioP2;P2;SDS_P1;SDS_P2;PMS_P1;PMS_P2;Temp;Humidity;BMP_temperature;BMP_pressure;BME280_temperature;BME280_humidity;BME280_pressure;Samples;Min_cycle;Max_cycle;Signal;HPM_P1;HPM_P2
2021/08/30 00:00:33;;;;;;;1.60;1.00;;;16.10;79.00;;;;;;5047355;28;20028;-44
2021/08/30 00:03:17;;;;;;;2.13;1.20;;;16.10;79.10;;;;;;5047234;28;20033;-45
2021/08/30 00:06:01;;;;;;;1.70;1.10;;;16.10;79.40;;;;;;5047719;28;20033;-45
2021/08/30 00:08:45;;;;;;;3.15;1.13;;;16.10;79.20;;;;;;5047387;28;20048;-43
2021/08/30 00:11:30;;;;;;;1.58;1.30;;;16.00;79.20;;;;;;5047127;28;20032;-43
2021/08/30 00:14:14;;;;;;;1.63;1.20;;;16.10;79.20;;;;;;5047097;28;20028;-43
2021/08/30 00:16:58;;;;;;;2.03;1.45;;;16.10;79.30;;;;;;5047029;28;20064;-44
2021/08/30 00:19:43;;;;;;;1.92;1.40;;;16.10;79.30;;;;;;5046954;28;20069;-44
2021/08/30 00:22:27;;;;;;;1.85;1.30;;;16.10;79.20;;;;;;5046805;28;20036;-43
2021/08/30 00:25:11;;;;;;;1.63;1.10;;;16.10;79.20;;;;;;5046951;28;20040;-43
2021/08/30 00:27:56;;;;;;;1.95;1.33;;;16.00;79.20;;;;;;5046816;28;20391;-47
2021/08/30 00:30:40;;;;;;;1.70;1.00;;;16.00;79.20;;;;;;5046864;28;20129;-42
2021/08/30 00:33:24;;;;;;;1.98;1.27;;;16.00;79.30;;;;;;5046535;28;20287;-43
2021/08/30 00:36:09;;;;;;;1.73;1.20;;;16.00;79.30;;;;;;5047059;28;20045;-44
2021/08/30 00:38:54;;;;;;;1.83;1.23;;;16.10;79.20;;;;;;5046774;28;20044;-43
2021/08/30 00:41:38;;;;;;;1.48;1.00;;;16.00;79.30;;;;;;5046573;28;20040;-43
2021/08/30 00:44:23;;;;;;;2.08;1.10;;;16.00;79.20;;;;;;5046995;28;20043;-44
2021/08/30 00:47:07;;;;;;;1.67;1.20;;;16.10;79.20;;;;;;5046936;28;20049;-44
2021/08/30 00:49:54;;;;;;;1.80;1.17;;;16.00;79.20;;;;;;5046730;28;20089;-45
2021/08/30 00:52:43;;;;;;;1.27;0.90;;;16.10;79.40;;;;;;5045771;28;20033;-43
2021/08/30 00:55:27;;;;;;;1.95;1.17;;;16.10;79.40;;;;;;5046542;28;20037;-44
2021/08/30 00:58:11;;;;;;;1.27;0.90;;;16.10;79.30;;;;;;5046333;28;20277;-43
2021/08/30 01:00:55;;;;;;;1.98;1.10;;;16.10;79.30;;;;;;5045398;28;20336;-43
2021/08/30 01:03:40;;;;;;;1.40;0.93;;;16.10;79.20;;;;;;5046114;28;20071;-44
2021/08/30 01:06:39;;;;;;;2.58;0.93;;;16.10;79.10;;;;;;5046360;28;20220;-45
2021/08/30 01:09:33;;;;;;;2.50;0.90;;;16.10;79.00;;;;;;5046059;28;20232;-44
2021/08/30 01:12:26;;;;;;;1.60;1.13;;;16.10;78.90;;;;;;5045410;28;20024;-43
2021/08/30 01:15:11;;;;;;;2.00;1.20;;;16.10;79.00;;;;;;5045466;28;20335;-43
2021/08/30 01:17:56;;;;;;;2.17;1.17;;;16.00;79.10;;;;;;5045171;28;20228;-45
2021/08/30 01:20:48;;;;;;;2.17;1.00;;;16.00;79.10;;;;;;5044943;28;20030;-44
2021/08/30 01:23:35;;;;;;;1.27;0.90;;;16.00;79.10;;;;;;5046166;28;20056;-44
2021/08/30 01:26:19;;;;;;;1.25;0.80;;;16.00;79.10;;;;;;5045298;28;20068;-45
2021/08/30 01:29:12;;;;;;;2.42;1.20;;;16.00;79.10;;;;;;5046041;28;20040;-44
2021/08/30 01:32:01;;;;;;;3.08;1.20;;;16.00;79.20;;;;;;5045469;28;20072;-43
2021/08/30 01:34:45;;;;;;;2.40;1.30;;;16.00;79.30;;;;;;5031124;28;20044;-44
2021/08/30 01:37:30;;;;;;;2.25;1.10;;;15.90;79.40;;;;;;5045499;28;20067;-43
2021/08/30 01:40:15;;;;;;;1.70;1.20;;;15.90;79.20;;;;;;5030547;28;20260;-44
2021/08/30 01:42:59;;;;;;;2.03;1.20;;;15.90;79.30;;;;;;5030771;28;20039;-44
2021/08/30 01:45:44;;;;;;;1.65;1.10;;;15.90;79.30;;;;;;5045281;28;20060;-43
2021/08/30 01:48:28;;;;;;;3.22;1.17;;;15.90;79.40;;;;;;5044568;28;20347;-45
2021/08/30 01:51:12;;;;;;;1.48;1.10;;;15.90;79.50;;;;;;5045644;28;20044;-43
2021/08/30 01:53:57;;;;;;;1.92;1.30;;;15.90;79.50;;;;;;5044634;28;20033;-43
2021/08/30 01:56:47;;;;;;;2.70;1.35;;;15.90;79.40;;;;;;5044268;28;20371;-44
2021/08/30 02:02:35;;;;;;;3.47;1.50;;;15.80;79.50;;;;;;5045470;28;20105;-44
2021/08/30 02:05:19;;;;;;;1.92;1.38;;;15.80;79.60;;;;;;5044395;28;20028;-43
2021/08/30 02:08:04;;;;;;;1.67;1.23;;;15.80;79.70;;;;;;5044862;28;20036;-44
2021/08/30 02:10:49;;;;;;;4.30;1.38;;;15.80;79.80;;;;;;5044852;28;20028;-43
2021/08/30 02:13:34;;;;;;;2.85;1.38;;;15.80;79.70;;;;;;5044705;28;20079;-45
2021/08/30 02:16:18;;;;;;;2.33;1.20;;;15.70;79.90;;;;;;5044724;28;20036;-44
2021/08/30 02:19:14;;;;;;;2.83;1.35;;;15.70;79.90;;;;;;5044791;28;20036;-44
2021/08/30 02:22:29;;;;;;;1.65;1.17;;;15.70;79.90;;;;;;5030556;28;20140;-44
2021/08/30 02:25:15;;;;;;;3.08;1.10;;;15.70;79.80;;;;;;5044491;28;20087;-44
2021/08/30 02:27:59;;;;;;;2.00;1.20;;;15.80;79.80;;;;;;5043834;28;20040;-43
2021/08/30 02:30:43;;;;;;;2.83;1.50;;;15.70;79.90;;;;;;5043573;28;20048;-44
2021/08/30 02:33:27;;;;;;;1.77;1.30;;;15.70;79.80;;;;;;5043385;28;20099;-44
2021/08/30 02:36:12;;;;;;;2.20;1.27;;;15.80;79.80;;;;;;5043937;28;20086;-43
2021/08/30 02:38:56;;;;;;;2.30;1.33;;;15.70;79.80;;;;;;5029661;28;20229;-45
2021/08/30 02:41:40;;;;;;;1.92;1.30;;;15.70;79.80;;;;;;5043439;28;20044;-43
2021/08/30 02:44:24;;;;;;;3.95;1.40;;;15.80;79.80;;;;;;5044936;28;20148;-45
2021/08/30 02:47:08;;;;;;;2.20;1.40;;;15.80;79.80;;;;;;5044568;28;20075;-43
2021/08/30 02:49:53;;;;;;;2.53;1.50;;;15.70;80.00;;;;;;5044412;28;20243;-43
2021/08/30 02:52:40;;;;;;;3.25;1.30;;;15.70;80.00;;;;;;5044321;28;20403;-43
2021/08/30 02:55:24;;;;;;;2.40;1.50;;;15.70;80.20;;;;;;5044809;28;20032;-45
2021/08/30 02:58:08;;;;;;;2.47;1.30;;;15.70;80.20;;;;;;5043263;28;20204;-43
2021/08/30 03:00:52;;;;;;;2.08;1.50;;;15.70;80.20;;;;;;5029186;28;20375;-44
2021/08/30 03:03:37;;;;;;;1.95;1.23;;;15.70;80.30;;;;;;5043843;28;20244;-43
2021/08/30 03:06:21;;;;;;;3.15;1.30;;;15.70;80.30;;;;;;5043874;28;20077;-45
2021/08/30 03:09:05;;;;;;;2.08;1.40;;;15.70;80.30;;;;;;5044300;28;20220;-44
2021/08/30 03:11:50;;;;;;;2.63;1.38;;;15.70;80.30;;;;;;5043917;28;20040;-43
2021/08/30 03:14:36;;;;;;;3.60;1.30;;;15.70;80.20;;;;;;5043396;28;20351;-43
2021/08/30 03:17:21;;;;;;;3.22;1.25;;;15.70;80.10;;;;;;5042779;28;20032;-44
2021/08/30 03:20:06;;;;;;;3.35;1.30;;;15.70;80.10;;;;;;5042786;28;20391;-44
2021/08/30 03:22:50;;;;;;;3.80;1.50;;;15.70;80.10;;;;;;5042646;28;20029;-45
2021/08/30 03:25:34;;;;;;;3.95;1.73;;;15.70;80.20;;;;;;5028330;28;20071;-45
2021/08/30 03:28:18;;;;;;;2.53;1.50;;;15.70;80.20;;;;;;5043707;28;20036;-43
2021/08/30 03:31:03;;;;;;;3.13;1.60;;;15.70;80.20;;;;;;5043595;28;20081;-43
2021/08/30 03:33:47;;;;;;;2.00;1.50;;;15.60;80.20;;;;;;5043424;28;20041;-45
2021/08/30 03:36:31;;;;;;;2.00;1.40;;;15.70;80.20;;;;;;5043482;28;20029;-44
2021/08/30 03:39:16;;;;;;;2.90;1.58;;;15.70;80.20;;;;;;5043495;28;20056;-44
2021/08/30 03:42:02;;;;;;;1.90;1.33;;;15.70;80.00;;;;;;5043256;28;20028;-44
2021/08/30 03:44:46;;;;;;;5.38;2.00;;;15.70;80.10;;;;;;5043208;28;20371;-45
2021/08/30 03:47:31;;;;;;;2.25;1.50;;;15.70;80.10;;;;;;5043966;28;20228;-44
2021/08/30 03:50:15;;;;;;;2.22;1.30;;;15.70;80.60;;;;;;5042870;28;20064;-43
2021/08/30 03:53:00;;;;;;;3.20;1.33;;;15.60;80.20;;;;;;5043361;28;20041;-44
2021/08/30 03:55:44;;;;;;;2.00;1.45;;;15.60;80.30;;;;;;5042422;28;20460;-43
2021/08/30 03:58:28;;;;;;;4.13;1.38;;;15.60;80.30;;;;;;5042398;28;20071;-42
2021/08/30 04:01:14;;;;;;;2.80;1.40;;;15.60;80.30;;;;;;5043478;28;20248;-42
2021/08/30 04:04:00;;;;;;;1.95;1.27;;;15.60;80.60;;;;;;5042316;28;20379;-43
2021/08/30 04:06:44;;;;;;;2.72;1.60;;;15.70;80.40;;;;;;5043329;28;20028;-43
2021/08/30 04:09:28;;;;;;;2.75;1.50;;;15.60;80.30;;;;;;5042379;28;20036;-43
2021/08/30 04:12:12;;;;;;;3.85;1.50;;;15.60;80.70;;;;;;5043027;28;20032;-43
2021/08/30 04:14:56;;;;;;;2.15;1.20;;;15.50;80.90;;;;;;5028983;28;20040;-43
2021/08/30 04:17:40;;;;;;;3.03;1.33;;;15.50;80.70;;;;;;5043308;28;20079;-43
2021/08/30 04:20:25;;;;;;;2.58;1.42;;;15.50;80.90;;;;;;5043182;28;20044;-42
2021/08/30 04:23:09;;;;;;;4.30;1.45;;;15.50;81.30;;;;;;5042939;28;20352;-43
2021/08/30 04:25:53;;;;;;;4.15;1.38;;;15.50;81.30;;;;;;5043037;28;20393;-44
2021/08/30 04:28:37;;;;;;;2.30;1.40;;;15.40;81.60;;;;;;5043003;28;20056;-43
2021/08/30 04:31:22;;;;;;;3.38;1.70;;;15.50;81.20;;;;;;5043086;28;20067;-43
2021/08/30 04:34:06;;;;;;;3.13;1.45;;;15.50;81.00;;;;;;5042857;28;20124;-43
2021/08/30 04:36:51;;;;;;;2.85;1.40;;;15.60;81.00;;;;;;5044654;28;20032;-42
2021/08/30 04:39:35;;;;;;;2.55;1.13;;;15.50;81.60;;;;;;5046547;28;25326;-43
2021/08/30 04:42:19;;;;;;;2.60;1.13;;;15.50;80.90;;;;;;5046438;28;20028;-42
2021/08/30 04:45:04;;;;;;;4.47;1.15;;;15.50;80.90;;;;;;5047232;28;20066;-43
2021/08/30 04:47:47;;;;;;;2.30;1.05;;;15.50;81.00;;;;;;5045670;28;20160;-43
2021/08/30 04:50:31;;;;;;;1.55;0.93;;;15.50;81.00;;;;;;5046910;28;20339;-44
2021/08/30 04:53:16;;;;;;;1.80;0.98;;;15.50;80.90;;;;;;5046784;28;20036;-44
2021/08/30 04:56:00;;;;;;;1.95;1.00;;;15.50;81.00;;;;;;5046708;28;20072;-43
2021/08/30 04:58:44;;;;;;;2.75;1.10;;;15.50;81.00;;;;;;5046444;28;20068;-42
2021/08/30 05:01:29;;;;;;;3.38;1.00;;;15.50;81.00;;;;;;5046268;28;20067;-43
2021/08/30 05:04:13;;;;;;;1.60;1.00;;;15.50;80.80;;;;;;5045278;28;20375;-48
2021/08/30 05:06:57;;;;;;;2.50;1.10;;;15.40;80.80;;;;;;5046149;28;20032;-44
2021/08/30 05:09:41;;;;;;;1.95;0.90;;;15.50;80.80;;;;;;5046009;28;20067;-42
2021/08/30 05:12:26;;;;;;;3.65;1.00;;;15.50;80.70;;;;;;5045688;28;20410;-44
2021/08/30 05:15:11;;;;;;;2.08;1.00;;;15.40;80.90;;;;;;5046351;28;20025;-43
2021/08/30 05:17:55;;;;;;;3.42;1.10;;;15.40;81.20;;;;;;5046016;28;20040;-44
2021/08/30 05:20:39;;;;;;;1.58;1.00;;;15.50;80.80;;;;;;5045802;28;20068;-44
2021/08/30 05:23:23;;;;;;;4.05;1.00;;;15.40;81.00;;;;;;5045981;28;20056;-44
2021/08/30 05:26:08;;;;;;;3.08;1.20;;;15.30;81.30;;;;;;5046195;28;20033;-43
2021/08/30 05:28:52;;;;;;;1.98;0.90;;;15.30;81.90;;;;;;5045891;28;20032;-43
2021/08/30 05:31:36;;;;;;;2.28;1.40;;;15.30;82.30;;;;;;5045873;28;20048;-43
2021/08/30 05:34:22;;;;;;;2.05;1.40;;;15.30;81.70;;;;;;5045568;28;20056;-44
2021/08/30 05:37:06;;;;;;;2.38;1.20;;;15.20;81.90;;;;;;5045759;28;20121;-44
2021/08/30 05:39:50;;;;;;;2.20;1.15;;;15.20;81.90;;;;;;5045444;28;20048;-45
2021/08/30 05:42:34;;;;;;;2.40;1.10;;;15.20;81.80;;;;;;5045333;28;20036;-43
2021/08/30 05:45:19;;;;;;;2.97;1.20;;;15.10;82.00;;;;;;5045377;28;20029;-46
2021/08/30 05:48:03;;;;;;;1.75;1.10;;;15.10;82.00;;;;;;5045315;28;20068;-45
2021/08/30 05:50:47;;;;;;;2.53;1.00;;;15.10;82.10;;;;;;5045352;28;20356;-45
2021/08/30 05:53:32;;;;;;;1.58;1.00;;;15.10;81.90;;;;;;5045248;28;20112;-45
2021/08/30 05:56:16;;;;;;;2.20;1.10;;;15.10;81.80;;;;;;5045160;28;20091;-46
2021/08/30 05:59:00;;;;;;;2.08;1.10;;;15.20;81.70;;;;;;5045026;28;20032;-44
2021/08/30 06:01:44;;;;;;;1.40;1.00;;;15.20;81.60;;;;;;5045096;28;20352;-45
2021/08/30 06:04:28;;;;;;;1.38;1.00;;;15.20;81.70;;;;;;5045344;28;20035;-46
2021/08/30 06:07:13;;;;;;;1.98;0.95;;;15.10;81.90;;;;;;5044882;28;20229;-45
2021/08/30 06:09:57;;;;;;;1.30;0.82;;;15.20;81.80;;;;;;5044973;28;20362;-45
2021/08/30 06:12:41;;;;;;;1.55;1.00;;;15.20;81.80;;;;;;5044797;28;20266;-44
2021/08/30 06:15:26;;;;;;;1.85;1.00;;;15.20;81.80;;;;;;5044711;28;20028;-43
2021/08/30 06:18:10;;;;;;;1.52;1.00;;;15.20;81.80;;;;;;5045140;28;20128;-43
2021/08/30 06:20:54;;;;;;;1.45;0.98;;;15.20;81.70;;;;;;5044803;28;20225;-44
2021/08/30 06:23:39;;;;;;;1.77;1.02;;;15.20;81.80;;;;;;5044548;28;20041;-44
2021/08/30 06:26:23;;;;;;;2.00;1.15;;;15.10;82.00;;;;;;5045117;28;20032;-44
2021/08/30 06:29:07;;;;;;;2.42;1.27;;;15.10;82.10;;;;;;5044463;28;20064;-44
2021/08/30 06:31:52;;;;;;;1.65;1.10;;;15.10;82.20;;;;;;5044553;28;20036;-45
2021/08/30 06:34:36;;;;;;;1.63;0.90;;;15.10;82.00;;;;;;5044568;28;20040;-45
2021/08/30 06:37:21;;;;;;;1.50;1.00;;;15.10;82.00;;;;;;5044304;28;20071;-44
2021/08/30 06:40:06;;;;;;;1.02;0.70;;;15.10;82.30;;;;;;5044400;28;20400;-44
2021/08/30 06:42:52;;;;;;;1.92;0.90;;;15.10;82.40;;;;;;5043849;28;20040;-44
2021/08/30 06:45:36;;;;;;;1.33;0.70;;;15.10;82.40;;;;;;5044734;28;20216;-44
2021/08/30 06:48:20;;;;;;;1.20;0.90;;;15.10;82.50;;;;;;5044126;28;20390;-44
2021/08/30 06:51:04;;;;;;;1.67;1.00;;;15.10;82.50;;;;;;5044854;28;20059;-45
2021/08/30 06:53:48;;;;;;;1.63;0.80;;;15.10;82.30;;;;;;5043266;28;20217;-45
2021/08/30 06:56:32;;;;;;;1.65;0.80;;;15.10;82.50;;;;;;5044772;28;20033;-44
2021/08/30 06:59:16;;;;;;;1.35;0.90;;;15.20;82.60;;;;;;5043682;28;20028;-44
2021/08/30 07:02:01;;;;;;;1.38;0.85;;;15.20;82.60;;;;;;5043932;28;20056;-44
2021/08/30 07:04:45;;;;;;;0.90;0.70;;;15.10;82.70;;;;;;5044392;28;20268;-44
2021/08/30 07:07:30;;;;;;;2.75;0.90;;;15.20;82.70;;;;;;5044207;28;20148;-45
2021/08/30 07:10:14;;;;;;;1.40;0.70;;;15.20;82.60;;;;;;5044086;28;20035;-44
2021/08/30 07:12:58;;;;;;;1.30;0.90;;;15.30;82.70;;;;;;5044052;28;20083;-44
2021/08/30 07:15:42;;;;;;;1.60;0.90;;;15.30;82.70;;;;;;5043711;28;20087;-44
2021/08/30 07:18:27;;;;;;;1.23;0.90;;;15.30;82.80;;;;;;5043526;28;20060;-44
2021/08/30 07:21:11;;;;;;;1.15;0.80;;;15.30;82.80;;;;;;5044018;28;20028;-44
2021/08/30 07:23:55;;;;;;;1.23;0.77;;;15.30;82.80;;;;;;5043708;28;20076;-44
2021/08/30 07:26:39;;;;;;;1.63;0.70;;;15.30;82.70;;;;;;5043697;28;20123;-46
2021/08/30 07:29:23;;;;;;;1.00;0.70;;;15.50;82.60;;;;;;5044000;28;20029;-44
2021/08/30 07:32:08;;;;;;;1.17;0.60;;;15.50;82.40;;;;;;5043683;28;20343;-44
2021/08/30 07:34:52;;;;;;;0.70;0.50;;;15.50;82.20;;;;;;5043845;28;20087;-44
2021/08/30 07:37:37;;;;;;;1.10;0.60;;;15.60;82.20;;;;;;5043826;28;20032;-44
2021/08/30 07:40:21;;;;;;;1.52;0.75;;;15.60;82.20;;;;;;5043424;28;20225;-46
2021/08/30 07:43:05;;;;;;;1.17;0.73;;;15.60;82.10;;;;;;5042500;28;20037;-46
2021/08/30 07:45:49;;;;;;;1.80;0.80;;;15.70;82.00;;;;;;5043276;28;20032;-44
2021/08/30 07:48:34;;;;;;;1.58;0.80;;;15.70;81.80;;;;;;5043404;28;20033;-44
2021/08/30 07:51:18;;;;;;;1.17;0.70;;;15.70;81.70;;;;;;5043331;28;20075;-44
2021/08/30 07:54:02;;;;;;;1.13;0.70;;;15.70;81.70;;;;;;5043815;28;20140;-44
2021/08/30 07:56:46;;;;;;;1.80;0.93;;;15.70;81.70;;;;;;5043481;28;20057;-45
2021/08/30 07:59:31;;;;;;;1.02;0.70;;;15.70;81.70;;;;;;5043854;28;20339;-44
2021/08/30 08:02:16;;;;;;;1.20;0.70;;;15.70;81.60;;;;;;5043213;28;20048;-44
2021/08/30 08:05:00;;;;;;;2.40;0.77;;;15.70;81.50;;;;;;5043286;28;20089;-45
2021/08/30 08:07:45;;;;;;;1.05;0.70;;;15.80;81.40;;;;;;5043307;28;20032;-45
2021/08/30 08:10:29;;;;;;;1.25;0.80;;;15.80;81.40;;;;;;5044394;28;20028;-43
2021/08/30 08:13:14;;;;;;;1.77;1.10;;;15.80;81.50;;;;;;5047059;28;20056;-44
2021/08/30 08:15:58;;;;;;;2.25;1.17;;;15.80;81.40;;;;;;5047420;28;20182;-45
2021/08/30 08:18:42;;;;;;;2.05;1.05;;;15.80;81.40;;;;;;5047052;28;20028;-45
2021/08/30 08:21:26;;;;;;;1.70;0.90;;;15.80;81.50;;;;;;5046902;28;20072;-44
2021/08/30 08:24:10;;;;;;;3.10;0.90;;;15.90;81.70;;;;;;5047207;28;20067;-44
2021/08/30 08:26:55;;;;;;;1.65;1.00;;;15.90;81.60;;;;;;5047051;28;20048;-43
2021/08/30 08:29:39;;;;;;;2.63;1.10;;;16.00;81.60;;;;;;5046870;28;20036;-44
2021/08/30 08:32:23;;;;;;;2.03;1.20;;;16.00;81.70;;;;;;5046862;28;20099;-43
2021/08/30 08:35:09;;;;;;;1.58;1.08;;;16.00;81.60;;;;;;5045908;28;20075;-44
2021/08/30 08:37:53;;;;;;;1.45;0.90;;;16.00;81.60;;;;;;5046565;28;20036;-43
2021/08/30 08:40:38;;;;;;;2.55;1.23;;;16.10;81.60;;;;;;5046737;28;20379;-44
2021/08/30 08:43:22;;;;;;;6.00;1.50;;;16.00;81.80;;;;;;5046476;28;20116;-44
2021/08/30 08:46:06;;;;;;;2.10;1.27;;;16.10;81.60;;;;;;5046611;28;20040;-44
2021/08/30 08:48:50;;;;;;;2.22;1.42;;;16.10;81.70;;;;;;5046477;28;20443;-44
2021/08/30 08:51:36;;;;;;;2.92;1.20;;;16.20;81.90;;;;;;5046448;28;20052;-44
2021/08/30 08:54:21;;;;;;;3.15;1.10;;;16.20;81.80;;;;;;5045332;28;20063;-45
2021/08/30 08:57:05;;;;;;;2.17;1.23;;;16.30;81.80;;;;;;5046679;28;20255;-45
2021/08/30 09:00:04;;;;;;;2.58;1.23;;;16.30;81.70;;;;;;5046440;28;20032;-44
2021/08/30 09:02:51;;;;;;;2.22;1.10;;;16.30;81.90;;;;;;5046190;28;20064;-45
2021/08/30 09:05:35;;;;;;;1.80;1.30;;;16.40;81.80;;;;;;5046812;28;20033;-44
2021/08/30 09:08:36;;;;;;;2.72;1.35;;;16.40;81.70;;;;;;5045575;28;20032;-45
2021/08/30 09:11:21;;;;;;;1.70;1.10;;;16.40;81.50;;;;;;5046070;28;20264;-45
2021/08/30 09:14:21;;;;;;;3.33;1.23;;;16.40;81.50;;;;;;5046122;28;20276;-45
2021/08/30 09:17:07;;;;;;;1.77;1.02;;;16.60;81.60;;;;;;5046347;28;20249;-46
2021/08/30 09:19:54;;;;;;;2.35;1.00;;;16.60;81.60;;;;;;5046161;28;20401;-46
2021/08/30 09:22:39;;;;;;;1.70;1.23;;;16.60;81.60;;;;;;5044462;28;20029;-47
2021/08/30 09:25:23;;;;;;;3.05;1.20;;;16.60;81.30;;;;;;5045172;28;20056;-45
2021/08/30 09:28:07;;;;;;;3.55;1.20;;;16.60;81.10;;;;;;5045037;28;20216;-47
2021/08/30 09:30:56;;;;;;;1.63;0.95;;;16.60;81.00;;;;;;5046177;28;20025;-45
2021/08/30 09:33:51;;;;;;;2.38;1.25;;;16.60;80.90;;;;;;5045586;28;20040;-47
2021/08/30 09:36:42;;;;;;;1.80;1.05;;;16.60;80.80;;;;;;5045591;28;20044;-46
2021/08/30 09:39:27;;;;;;;;;;;16.80;81.50;;;;;;5045979;28;20083;-46
2021/08/30 09:42:11;;;;;;;2.38;1.08;;;16.80;83.70;;;;;;5052548;28;19908;-47
2021/08/30 09:45:13;;;;;;;2.97;1.20;;;17.00;82.10;;;;;;5045675;28;20343;-45
2021/08/30 09:48:02;;;;;;;2.15;1.10;;;17.30;84.00;;;;;;5045412;28;20099;-45
2021/08/30 09:50:46;;;;;;;2.05;1.10;;;17.60;83.30;;;;;;5045454;28;20035;-49
2021/08/30 09:53:32;;;;;;;2.10;0.88;;;17.80;82.90;;;;;;5045772;28;20096;-47
2021/08/30 09:56:16;;;;;;;1.85;1.02;;;17.80;81.50;;;;;;5044668;28;20048;-46
2021/08/30 09:59:00;;;;;;;1.92;0.80;;;17.80;80.70;;;;;;5045116;28;20056;-47
2021/08/30 10:01:44;;;;;;;2.80;0.90;;;17.70;80.30;;;;;;5044025;28;20236;-45
2021/08/30 10:04:28;;;;;;;1.90;0.90;;;17.70;79.90;;;;;;5044920;28;20240;-46
2021/08/30 10:07:13;;;;;;;1.40;0.88;;;17.60;79.70;;;;;;5044878;28;20037;-46
2021/08/30 10:09:57;;;;;;;1.67;0.88;;;17.60;79.60;;;;;;5044940;28;20071;-46
2021/08/30 10:12:42;;;;;;;4.55;1.23;;;17.60;79.50;;;;;;5044773;28;20028;-46
2021/08/30 10:15:27;;;;;;;1.30;0.80;;;17.60;79.10;;;;;;5045095;28;20037;-47
2021/08/30 10:18:11;;;;;;;1.90;0.90;;;17.60;79.30;;;;;;5044403;28;20072;-45
2021/08/30 10:20:55;;;;;;;1.65;0.95;;;17.60;79.30;;;;;;5045386;28;20044;-47
2021/08/30 10:23:39;;;;;;;1.95;0.90;;;17.60;79.50;;;;;;5044498;28;20378;-45
2021/08/30 10:26:36;;;;;;;2.08;1.20;;;17.70;79.50;;;;;;5045256;28;20209;-46
2021/08/30 10:29:30;;;;;;;1.10;0.70;;;17.70;79.50;;;;;;5044795;28;20048;-45
2021/08/30 10:32:21;;;;;;;1.50;0.80;;;17.60;79.30;;;;;;5043623;28;20352;-45
2021/08/30 10:35:16;;;;;;;2.20;1.00;;;17.70;78.70;;;;;;5044050;28;20038;-46
2021/08/30 10:38:03;;;;;;;4.55;0.98;;;17.60;78.80;;;;;;5044851;28;20071;-46
2021/08/30 10:40:49;;;;;;;2.40;0.93;;;17.60;78.80;;;;;;5044681;28;20040;-46
2021/08/30 10:43:41;;;;;;;2.40;1.48;;;17.60;78.60;;;;;;5044188;28;20044;-45
2021/08/30 10:46:36;;;;;;;2.38;1.10;;;17.60;78.70;;;;;;5044396;28;20272;-45
2021/08/30 10:49:20;;;;;;;2.47;1.42;;;17.60;79.00;;;;;;5043144;28;20091;-46
2021/08/30 10:52:11;;;;;;;2.47;1.23;;;17.60;78.90;;;;;;5044036;28;20056;-45
2021/08/30 10:54:58;;;;;;;2.75;0.90;;;17.60;79.00;;;;;;5044239;28;20028;-46
2021/08/30 10:57:51;;;;;;;1.55;0.90;;;17.60;79.10;;;;;;5044039;28;20111;-46
2021/08/30 11:00:36;;;;;;;4.28;1.35;;;17.60;79.20;;;;;;5044003;28;20056;-46
2021/08/30 11:03:31;;;;;;;1.92;1.02;;;17.50;79.40;;;;;;5043961;28;20359;-46
2021/08/30 11:06:15;;;;;;;16.67;2.30;;;17.50;79.30;;;;;;5044756;28;20016;-45
2021/08/30 11:09:00;;;;;;;2.67;1.20;;;17.50;79.30;;;;;;5043966;28;20083;-46
2021/08/30 11:11:44;;;;;;;2.50;1.20;;;17.50;79.30;;;;;;5043867;28;20047;-45
2021/08/30 11:14:28;;;;;;;1.30;0.90;;;17.50;78.90;;;;;;5044192;28;20044;-48
2021/08/30 11:17:13;;;;;;;2.95;1.40;;;17.50;79.00;;;;;;5044361;28;20132;-46
2021/08/30 11:19:59;;;;;;;1.60;1.05;;;17.60;79.00;;;;;;5043817;28;20072;-46
2021/08/30 11:22:56;;;;;;;2.00;1.23;;;17.60;79.00;;;;;;5043691;28;20041;-45
2021/08/30 11:25:40;;;;;;;3.13;1.17;;;17.60;78.90;;;;;;5042755;28;20076;-45
2021/08/30 11:28:24;;;;;;;1.80;1.10;;;17.60;78.50;;;;;;5043817;28;20236;-46
2021/08/30 11:31:08;;;;;;;2.20;1.23;;;17.60;78.80;;;;;;5043770;28;20035;-46
2021/08/30 11:33:52;;;;;;;4.88;1.40;;;17.60;78.90;;;;;;5043661;28;20056;-47
2021/08/30 11:36:47;;;;;;;2.17;1.25;;;17.60;78.60;;;;;;5043690;28;20032;-46
2021/08/30 11:39:32;;;;;;;1.63;0.90;;;17.60;78.50;;;;;;5043342;28;20032;-45
2021/08/30 11:42:19;;;;;;;2.17;0.85;;;17.50;78.00;;;;;;5043427;28;20021;-46
2021/08/30 11:45:05;;;;;;;1.92;0.85;;;17.40;77.60;;;;;;5044433;28;20351;-48
2021/08/30 11:47:52;;;;;;;2.35;0.93;;;17.40;77.20;;;;;;5047665;28;20076;-46
2021/08/30 11:50:39;;;;;;;2.38;1.05;;;17.30;77.10;;;;;;5048051;28;20068;-46
2021/08/30 11:53:25;;;;;;;1.88;0.93;;;17.30;77.00;;;;;;5047866;28;20060;-46
2021/08/30 11:56:13;;;;;;;3.42;1.25;;;17.20;77.10;;;;;;5047348;28;20116;-46
2021/08/30 11:59:00;;;;;;;2.30;1.23;;;17.30;77.40;;;;;;5047682;28;20028;-47
2021/08/30 12:01:44;;;;;;;3.88;1.48;;;17.20;77.60;;;;;;5047246;28;20036;-46
2021/08/30 12:04:30;;;;;;;2.42;1.30;;;17.30;77.60;;;;;;5047176;28;20101;-45
2021/08/30 12:07:15;;;;;;;6.05;2.15;;;17.20;77.70;;;;;;5047144;28;20079;-45
2021/08/30 12:10:00;;;;;;;3.65;1.65;;;17.20;77.70;;;;;;5047122;28;20032;-46
2021/08/30 12:13:44;;;;;;;5.13;2.53;;;17.20;77.90;;;;;;5046142;28;20076;-45
2021/08/30 12:15:58;;;;;;;7.75;2.33;;;17.20;77.80;;;;;;5047069;28;20255;-45
2021/08/30 12:18:49;;;;;;;4.50;1.50;;;17.10;77.80;;;;;;5047026;28;20067;-45
2021/08/30 12:21:37;;;;;;;2.60;1.63;;;17.10;78.10;;;;;;5046949;28;20345;-47
2021/08/30 12:24:21;;;;;;;2.72;1.50;;;17.10;78.10;;;;;;5045859;28;20074;-45
2021/08/30 12:27:06;;;;;;;2.75;1.38;;;17.10;78.30;;;;;;5047244;28;20052;-45
2021/08/30 12:29:50;;;;;;;4.40;1.80;;;17.10;78.70;;;;;;5046974;28;20238;-48
2021/08/30 12:32:58;;;;;;;4.18;1.75;;;17.10;78.60;;;;;;5046030;28;20088;-47
2021/08/30 12:35:45;;;;;;;2.17;1.30;;;17.10;78.80;;;;;;5046812;28;20225;-46
2021/08/30 12:38:32;;;;;;;3.08;1.50;;;17.10;78.70;;;;;;5047102;28;20037;-45
2021/08/30 12:41:17;;;;;;;1.90;1.40;;;17.10;79.00;;;;;;5046551;28;20090;-47
2021/08/30 12:44:01;;;;;;;1.85;1.17;;;17.10;78.80;;;;;;5046814;28;20036;-46
2021/08/30 12:46:45;;;;;;;2.97;1.60;;;17.10;78.70;;;;;;5046476;28;20063;-47
2021/08/30 12:49:30;;;;;;;4.47;1.92;;;17.10;78.70;;;;;;5046390;28;20089;-45
2021/08/30 12:52:14;;;;;;;3.15;1.30;;;17.10;78.80;;;;;;5046358;28;20064;-45
2021/08/30 12:54:58;;;;;;;3.03;1.50;;;17.10;79.00;;;;;;5046335;28;20140;-47
2021/08/30 12:57:42;;;;;;;4.10;1.63;;;17.10;79.10;;;;;;5045259;28;20024;-48
2021/08/30 13:00:27;;;;;;;4.50;1.55;;;17.10;79.20;;;;;;5046112;28;20032;-45
2021/08/30 13:03:11;;;;;;;4.13;1.70;;;17.00;79.30;;;;;;5046301;28;20352;-46
2021/08/30 13:05:55;;;;;;;2.45;1.40;;;17.00;79.20;;;;;;5045287;28;20072;-46
2021/08/30 13:08:39;;;;;;;2.42;1.40;;;17.00;79.20;;;;;;5046082;28;20036;-46
2021/08/30 13:11:23;;;;;;;1.52;1.17;;;17.00;79.30;;;;;;5046466;28;20036;-47
2021/08/30 13:14:08;;;;;;;4.10;1.45;;;17.00;79.80;;;;;;5046030;28;20044;-46
2021/08/30 13:16:52;;;;;;;1.60;1.10;;;16.90;79.70;;;;;;5045907;28;20032;-45
2021/08/30 13:19:36;;;;;;;3.20;1.10;;;17.00;79.30;;;;;;5045829;28;20396;-45
2021/08/30 13:22:20;;;;;;;4.07;1.10;;;16.90;79.10;;;;;;5045754;28;20032;-46
2021/08/30 13:25:09;;;;;;;1.83;1.20;;;17.10;79.20;;;;;;5045981;28;20064;-45
2021/08/30 13:27:54;;;;;;;3.70;1.38;;;17.10;79.60;;;;;;5045654;28;20024;-45
2021/08/30 13:30:38;;;;;;;2.10;1.17;;;17.10;79.80;;;;;;5045667;28;20033;-46
2021/08/30 13:33:22;;;;;;;3.95;1.30;;;17.10;79.70;;;;;;5045727;28;20095;-47
2021/08/30 13:36:08;;;;;;;1.70;1.17;;;17.20;80.30;;;;;;5045139;28;20273;-48
2021/08/30 13:38:52;;;;;;;1.85;1.50;;;17.30;80.30;;;;;;5045634;28;20148;-46
2021/08/30 13:41:36;;;;;;;2.50;1.40;;;17.40;80.50;;;;;;5045966;28;20070;-46
2021/08/30 13:44:21;;;;;;;1.90;1.40;;;17.50;80.40;;;;;;5045761;28;20028;-45
2021/08/30 13:47:05;;;;;;;2.63;1.70;;;17.60;80.60;;;;;;5045542;28;20089;-45
2021/08/30 13:49:49;;;;;;;2.20;1.42;;;17.60;80.80;;;;;;5045650;28;20244;-46
2021/08/30 13:52:34;;;;;;;2.97;1.60;;;17.60;80.60;;;;;;5045522;28;20029;-44
2021/08/30 13:55:18;;;;;;;3.67;1.60;;;17.80;80.80;;;;;;5045515;28;20048;-45
2021/08/30 13:58:02;;;;;;;1.70;1.10;;;17.80;80.70;;;;;;5045316;28;20277;-47
2021/08/30 14:00:47;;;;;;;3.30;1.60;;;17.80;79.30;;;;;;5030361;28;20079;-47
2021/08/30 14:03:31;;;;;;;1.67;1.30;;;17.90;79.30;;;;;;5044120;28;20079;-47
2021/08/30 14:06:15;;;;;;;2.05;1.30;;;17.90;79.20;;;;;;5045016;28;20351;-46
2021/08/30 14:08:59;;;;;;;2.17;1.52;;;18.00;78.90;;;;;;5044951;28;20028;-45
2021/08/30 14:11:44;;;;;;;2.42;1.73;;;18.10;79.40;;;;;;5045008;28;20036;-45
2021/08/30 14:14:28;;;;;;;4.20;1.55;;;18.30;79.80;;;;;;5045353;28;20076;-45
2021/08/30 14:17:12;;;;;;;2.42;1.33;;;18.30;79.70;;;;;;5044830;28;20095;-44
2021/08/30 14:19:57;;;;;;;2.05;1.30;;;18.40;79.90;;;;;;5044791;28;20041;-45
2021/08/30 14:22:46;;;;;;;2.67;1.33;;;18.40;78.60;;;;;;5044515;28;20072;-46
2021/08/30 14:25:30;;;;;;;2.70;1.63;;;18.40;79.10;;;;;;5044656;28;20036;-47